Time;durP1;ratioP1;P1;durP2;ratioP2;P2;SDS_P1;SDS_P2;PMS_P1;PMS_P2;Temp;Humidity;BMP_temperature;BMP_pressure;BME280_temperature;BME280_humidity;BME280_pressure;Samples;Min_cycle;Max_cycle;Signal;HPM_P1;HPM_P2
2023/08/19 00:02:08;;;;;;;7.82;4.75;;;;;;;-145.00;57.37;72772.31;5066516;28;20049;-73
2023/08/19 00:04:35;;;;;;;6.57;5.60;;;;;;;-145.00;60.65;72888.91;5066837;28;20102;-73
2023/08/19 00:07:02;;;;;;;7.55;4.60;;;;;;;-145.00;61.97;72934.69;5066600;28;20060;-73
2023/08/19 00:09:28;;;;;;;5.85;4.65;;;;;;;-145.00;61.21;72922.22;5067055;28;20110;-73
2023/08/19 00:11:56;;;;;;;7.80;5.03;;;;;;;-145.00;61.19;72922.22;5066993;28;20056;-73
2023/08/19 00:14:23;;;;;;;6.18;4.65;;;;;;;-145.00;60.15;72893.06;5064959;28;20044;-73
2023/08/19 00:16:50;;;;;;;6.80;4.75;;;;;;;-145.00;59.83;72872.25;5067354;28;20103;-73
2023/08/19 00:19:16;;;;;;;5.55;4.63;;;;;;;-145.00;60.28;72863.91;5067157;28;20412;-73
2023/08/19 00:21:43;;;;;;;5.75;4.50;;;;;;;-145.00;59.97;72855.59;5067371;28;20049;-73
2023/08/19 00:24:09;;;;;;;5.45;4.38;;;;;;;-145.00;60.03;72847.25;5066406;28;20048;-73
2023/08/19 00:26:36;;;;;;;6.35;4.15;;;;;;;-145.00;59.96;72851.44;5066732;28;20048;-73
2023/08/19 00:29:04;;;;;;;5.13;3.97;;;;;;;-145.00;60.15;72863.91;5066244;28;20059;-73
2023/08/19 00:31:30;;;;;;;6.78;4.57;;;;;;;-145.00;60.28;72880.56;5066325;28;20551;-73
2023/08/19 00:33:57;;;;;;;7.00;5.00;;;;;;;-145.00;61.18;72909.72;5066815;28;20060;-73
2023/08/19 00:36:23;;;;;;;6.85;4.00;;;;;;;-145.00;60.47;72893.06;5066318;28;20538;-73
2023/08/19 00:38:51;;;;;;;5.30;4.35;;;;;;;-145.00;60.50;72878.50;5066854;28;20052;-74
2023/08/19 00:41:18;;;;;;;6.60;4.03;;;;;;;-145.00;60.69;72876.41;5066405;28;20052;-73
2023/08/19 00:43:45;;;;;;;8.07;4.32;;;;;;;-145.00;60.40;72866.00;5071021;28;20044;-74
2023/08/19 00:46:13;;;;;;;9.07;4.63;;;;;;;-145.00;60.69;72876.41;5069673;28;20052;-74
2023/08/19 00:48:40;;;;;;;5.40;4.38;;;;;;;-145.00;60.72;72872.25;5075759;28;20047;-73
2023/08/19 00:51:06;;;;;;;7.00;4.82;;;;;;;-145.00;60.93;72876.41;5075071;28;20060;-73
2023/08/19 00:53:34;;;;;;;5.82;4.63;;;;;;;-145.00;60.99;72880.56;5074470;28;20044;-73
2023/08/19 00:56:01;;;;;;;5.57;4.43;;;;;;;-145.00;61.02;72886.81;5074299;28;20681;-73
2023/08/19 00:58:27;;;;;;;5.93;4.40;;;;;;;-145.00;60.66;72882.66;5072699;28;20052;-73
2023/08/19 01:00:55;;;;;;;5.50;4.30;;;;;;;-145.00;60.57;72876.41;5072747;28;20036;-73
2023/08/19 01:03:24;;;;;;;9.25;4.40;;;;;;;-145.00;61.00;72880.56;5071715;28;20059;-73
2023/08/19 01:06:02;;;;;;;4.47;3.85;;;;;;;-145.00;61.00;72884.72;5072876;28;20052;-73
2023/08/19 01:08:34;;;;;;;5.95;4.60;;;;;;;-145.00;61.05;72880.56;5071449;28;20044;-73
2023/08/19 01:11:06;;;;;;;5.63;4.50;;;;;;;-145.00;61.14;72876.41;5072536;28;20056;-74
2023/08/19 01:13:41;;;;;;;6.70;4.33;;;;;;;-145.00;61.10;72884.72;5070365;28;20044;-73
2023/08/19 01:16:12;;;;;;;6.60;4.40;;;;;;;-145.00;61.42;72890.97;5071058;28;20052;-73
2023/08/19 01:18:41;;;;;;;5.97;4.90;;;;;;;-145.00;61.57;72895.16;5070192;28;20521;-73
2023/08/19 01:21:09;;;;;;;5.75;4.70;;;;;;;-145.00;61.85;72895.16;5069643;28;20570;-73
2023/08/19 01:23:41;;;;;;;8.00;4.45;;;;;;;-145.00;61.85;72893.06;5070159;28;20055;-73
2023/08/19 01:26:09;;;;;;;6.25;4.25;;;;;;;-145.00;61.80;72888.91;5069683;28;20055;-73
2023/08/19 01:28:36;;;;;;;6.15;4.82;;;;;;;-145.00;61.54;72897.22;5070212;28;20059;-73
2023/08/19 01:31:02;;;;;;;6.53;4.07;;;;;;;-145.00;61.82;72895.16;5061573;28;20705;-73
2023/08/19 01:33:29;;;;;;;7.05;4.78;;;;;;;-145.00;62.03;72901.38;5069596;28;20045;-73
2023/08/19 01:36:06;;;;;;;6.88;4.50;;;;;;;-145.00;62.29;72913.88;5070009;28;20162;-73
2023/08/19 01:38:40;;;;;;;5.60;4.28;;;;;;;-145.00;62.20;72901.38;5069719;28;20048;-73
2023/08/19 01:41:10;;;;;;;5.97;4.57;;;;;;;-145.00;62.14;72899.31;5069505;28;20052;-73
2023/08/19 01:43:37;;;;;;;5.82;4.43;;;;;;;-145.00;61.96;72903.47;5069672;28;20049;-72
2023/08/19 01:46:04;;;;;;;6.68;4.45;;;;;;;-145.00;62.22;72909.72;5069301;28;20052;-72
2023/08/19 01:48:30;;;;;;;5.03;4.38;;;;;;;-145.00;62.38;72918.03;5069509;28;20055;-72
2023/08/19 01:50:57;;;;;;;5.88;4.53;;;;;;;-145.00;62.21;72913.88;5069627;28;20412;-72
2023/08/19 01:53:24;;;;;;;5.78;4.38;;;;;;;-145.00;62.20;72911.78;5069328;28;20507;-73
2023/08/19 01:55:50;;;;;;;6.47;5.13;;;;;;;-145.00;62.17;72918.03;5069272;28;20045;-73
2023/08/19 01:58:18;;;;;;;5.80;4.57;;;;;;;-145.00;62.56;72924.28;5069068;28;20063;-73
2023/08/19 02:00:46;;;;;;;5.78;4.40;;;;;;;-145.00;62.87;72930.53;5068667;28;20051;-73
2023/08/19 02:03:12;;;;;;;8.13;4.93;;;;;;;-145.00;63.09;72930.53;5069099;28;20059;-73
2023/08/19 02:05:39;;;;;;;6.43;4.70;;;;;;;-145.00;62.98;72938.88;5069180;28;20055;-73
2023/08/19 02:08:06;;;;;;;6.93;4.45;;;;;;;-145.00;62.90;72947.19;5069305;28;20052;-73
2023/08/19 02:10:33;;;;;;;6.88;5.22;;;;;;;-145.00;62.77;72951.34;5069946;28;20059;-73
2023/08/19 02:13:00;;;;;;;5.53;4.40;;;;;;;-145.00;62.69;72951.34;5070493;28;20094;-73
2023/08/19 02:15:27;;;;;;;7.43;4.97;;;;;;;-145.00;62.89;72953.44;5070980;28;20056;-73
2023/08/19 02:17:54;;;;;;;7.45;5.57;;;;;;;-145.00;63.26;72945.09;5071333;28;20045;-73
2023/08/19 02:20:21;;;;;;;7.75;5.50;;;;;;;-145.00;63.23;72945.09;5070265;28;20044;-72
2023/08/19 02:22:47;;;;;;;8.90;5.40;;;;;;;-145.00;62.66;72943.03;5070648;28;20055;-72
2023/08/19 02:25:14;;;;;;;9.25;5.45;;;;;;;-145.00;62.43;72951.34;5070266;28;20052;-73
2023/08/19 02:27:40;;;;;;;6.40;5.25;;;;;;;-145.00;62.87;72957.59;5071134;28;20048;-73
2023/08/19 02:30:09;;;;;;;6.93;5.65;;;;;;;-145.00;63.29;72959.69;5070609;28;20060;-72
2023/08/19 02:32:40;;;;;;;8.15;5.40;;;;;;;-145.00;63.41;72968.00;5071802;28;20496;-73
2023/08/19 02:35:07;;;;;;;7.13;5.35;;;;;;;-145.00;63.56;72976.34;5071579;28;20125;-72
2023/08/19 02:37:33;;;;;;;7.05;5.60;;;;;;;-145.00;64.03;72988.81;5071360;28;20045;-73
2023/08/19 02:40:00;;;;;;;7.57;5.40;;;;;;;-145.00;63.62;72978.41;5068821;28;20052;-73
2023/08/19 02:42:26;;;;;;;6.25;5.32;;;;;;;-145.00;63.90;72993.00;5068255;28;20041;-73
2023/08/19 02:44:53;;;;;;;5.47;4.72;;;;;;;-145.00;63.66;72993.00;5068460;28;20075;-73
2023/08/19 02:47:19;;;;;;;12.65;6.03;;;;;;;-145.00;63.76;72993.00;5068173;28;20518;-72
2023/08/19 02:49:48;;;;;;;7.80;5.75;;;;;;;-145.00;63.46;72986.75;5068626;28;20048;-74
2023/08/19 02:52:14;;;;;;;7.03;5.68;;;;;;;-145.00;63.72;72986.75;5067840;28;20053;-73
2023/08/19 02:54:41;;;;;;;7.70;5.93;;;;;;;-145.00;63.97;72984.66;5068359;28;20040;-73
2023/08/19 02:57:07;;;;;;;8.90;5.13;;;;;;;-145.00;63.91;72988.81;5067875;28;20049;-73
2023/08/19 02:59:34;;;;;;;7.57;5.95;;;;;;;-145.00;64.17;72986.75;5067988;28;20048;-73
2023/08/19 03:02:00;;;;;;;7.50;5.60;;;;;;;-145.00;64.02;72984.66;5068067;28;20143;-73
2023/08/19 03:04:27;;;;;;;8.07;5.90;;;;;;;-145.00;64.42;73013.81;5067468;28;20102;-73
2023/08/19 03:06:55;;;;;;;7.47;5.82;;;;;;;-145.00;63.96;73005.47;5067932;28;20067;-73
2023/08/19 03:09:21;;;;;;;7.32;5.60;;;;;;;-145.00;63.76;72997.16;5067730;28;20059;-73
2023/08/19 03:11:48;;;;;;;8.82;5.97;;;;;;;-145.00;64.26;72997.16;5068004;28;20044;-75
2023/08/19 03:14:14;;;;;;;7.25;5.82;;;;;;;-145.00;64.42;73003.41;5067380;28;20064;-75
2023/08/19 03:16:41;;;;;;;9.13;6.30;;;;;;;-145.00;64.70;73024.22;5068184;28;20044;-73
2023/08/19 03:19:07;;;;;;;7.88;5.85;;;;;;;-145.00;64.65;73034.63;5067568;28;20048;-75
2023/08/19 03:21:34;;;;;;;8.85;6.25;;;;;;;-145.00;65.00;73040.88;5067869;28;20583;-73
2023/08/19 03:24:02;;;;;;;8.45;6.18;;;;;;;-145.00;64.93;73038.78;5067593;28;20117;-73
2023/08/19 03:26:28;;;;;;;7.78;6.50;;;;;;;-145.00;64.73;73026.31;5067664;28;20040;-72
2023/08/19 03:28:55;;;;;;;7.78;6.32;;;;;;;-145.00;65.31;73017.97;5067278;28;20056;-72
2023/08/19 03:31:21;;;;;;;9.27;6.50;;;;;;;-145.00;64.82;73024.22;5067358;28;20047;-73
2023/08/19 03:33:48;;;;;;;10.13;6.22;;;;;;;-145.00;64.66;73022.13;5068168;28;20063;-73
2023/08/19 03:36:14;;;;;;;8.30;6.32;;;;;;;-145.00;64.85;73028.38;5067442;28;20044;-73
2023/08/19 03:38:41;;;;;;;7.57;6.40;;;;;;;-145.00;64.76;73026.31;5067927;28;20047;-72
2023/08/19 03:41:09;;;;;;;8.98;6.32;;;;;;;-145.00;64.96;73026.31;5067015;28;20114;-72
2023/08/19 03:43:35;;;;;;;7.97;6.50;;;;;;;-145.00;64.93;73024.22;5067466;28;20496;-75
2023/08/19 03:46:02;;;;;;;9.18;6.22;;;;;;;-145.00;64.70;73024.22;5066999;28;20060;-74
2023/08/19 03:48:28;;;;;;;8.13;6.00;;;;;;;-145.00;64.75;73032.53;5067327;28;20049;-74
2023/08/19 03:50:55;;;;;;;7.45;6.15;;;;;;;-145.00;65.03;73036.72;5067176;28;20053;-74
2023/08/19 03:53:21;;;;;;;8.27;6.13;;;;;;;-145.00;64.72;73034.63;5066898;28;20063;-74
2023/08/19 03:55:50;;;;;;;8.85;6.78;;;;;;;-145.00;65.03;73038.78;5066900;28;20041;-74
2023/08/19 03:58:18;;;;;;;7.80;6.30;;;;;;;-145.00;64.95;73034.63;5066800;28;20516;-74
2023/08/19 04:00:45;;;;;;;9.40;6.68;;;;;;;-145.00;64.73;73034.63;5066842;28;20040;-74
2023/08/19 04:03:11;;;;;;;8.88;7.05;;;;;;;-145.00;64.78;73040.88;5066703;28;20051;-74
2023/08/19 04:05:38;;;;;;;8.52;6.80;;;;;;;-145.00;64.85;73038.78;5067027;28;20059;-74
2023/08/19 04:08:05;;;;;;;9.82;6.43;;;;;;;-145.00;64.90;73045.03;5066561;28;20048;-74
2023/08/19 04:10:32;;;;;;;9.02;6.13;;;;;;;-145.00;65.24;73047.13;5067213;28;20048;-74
2023/08/19 04:12:58;;;;;;;7.82;6.35;;;;;;;-145.00;65.23;73061.69;5067044;28;20059;-74
2023/08/19 04:15:26;;;;;;;7.25;6.40;;;;;;;-145.00;65.47;73072.09;5066577;28;20063;-74
2023/08/19 04:17:53;;;;;;;7.97;6.70;;;;;;;-145.00;65.52;73082.50;5066004;28;20045;-74
2023/08/19 04:20:19;;;;;;;7.78;6.00;;;;;;;-145.00;65.50;73084.59;5066437;28;20416;-73
2023/08/19 04:22:48;;;;;;;8.82;6.60;;;;;;;-145.00;65.95;73109.56;5066986;28;20048;-73
2023/08/19 04:25:15;;;;;;;7.57;5.93;;;;;;;-145.00;65.60;73113.75;5066055;28;20427;-73
2023/08/19 04:27:41;;;;;;;7.47;5.90;;;;;;;-145.00;65.71;73115.81;5066933;28;20045;-73
2023/08/19 04:30:09;;;;;;;6.68;5.45;;;;;;;-145.00;65.86;73126.22;5066207;28;20052;-74
2023/08/19 04:32:37;;;;;;;7.57;5.78;;;;;;;-145.00;65.46;73122.06;5066745;28;20679;-74
2023/08/19 04:35:04;;;;;;;9.85;6.40;;;;;;;-145.00;65.51;73122.06;5065897;28;20086;-73
2023/08/19 04:37:31;;;;;;;7.53;6.35;;;;;;;-145.00;65.73;73117.91;5066746;28;20044;-74
2023/08/19 04:39:57;;;;;;;7.20;6.03;;;;;;;-145.00;65.77;73130.41;5066759;28;20522;-74
2023/08/19 04:42:24;;;;;;;8.70;6.25;;;;;;;-145.00;66.22;73126.22;5066093;28;20059;-74
2023/08/19 04:44:50;;;;;;;8.90;6.40;;;;;;;-145.00;66.29;73119.97;5066816;28;20048;-74
2023/08/19 04:47:17;;;;;;;7.70;6.65;;;;;;;-145.00;65.99;73113.75;5066032;28;20055;-74
2023/08/19 04:49:44;;;;;;;10.50;6.47;;;;;;;-145.00;66.13;73113.75;5066779;28;20389;-73
2023/08/19 04:52:11;;;;;;;9.52;6.80;;;;;;;-145.00;66.30;73105.41;5065984;28;20631;-73
2023/08/19 04:54:37;;;;;;;8.73;6.85;;;;;;;-145.00;66.49;73109.56;5066573;28;20046;-74
2023/08/19 04:57:04;;;;;;;9.50;6.75;;;;;;;-145.00;66.74;73117.91;5065891;28;20067;-73
2023/08/19 04:59:30;;;;;;;8.95;6.30;;;;;;;-145.00;67.24;73147.06;5066296;28;20500;-73
2023/08/19 05:01:57;;;;;;;8.90;6.40;;;;;;;-145.00;67.07;73138.72;5066937;28;20543;-73
2023/08/19 05:04:23;;;;;;;9.75;6.20;;;;;;;-145.00;66.69;73117.91;5066376;28;20052;-74
2023/08/19 05:06:51;;;;;;;8.95;5.97;;;;;;;-145.00;66.35;73109.56;5067334;28;20778;-74
2023/08/19 05:09:18;;;;;;;7.88;5.88;;;;;;;-145.00;66.16;73103.31;5066545;28;20405;-74
2023/08/19 05:11:45;;;;;;;9.63;6.03;;;;;;;-145.00;66.09;73105.41;5066522;28;20492;-74
2023/08/19 05:14:11;;;;;;;7.88;5.53;;;;;;;-145.00;65.78;73090.84;5056410;28;20688;-74
2023/08/19 05:16:38;;;;;;;8.38;5.82;;;;;;;-145.00;65.80;73080.44;5069363;28;20055;-74
2023/08/19 05:19:14;;;;;;;6.35;5.68;;;;;;;-145.00;66.00;73080.44;5069165;28;20045;-74
2023/08/19 05:21:41;;;;;;;7.68;5.70;;;;;;;-145.00;65.80;73074.19;5067005;28;20053;-73
2023/08/19 05:24:10;;;;;;;7.18;5.88;;;;;;;-145.00;65.97;73059.59;5065953;28;20063;-74
2023/08/19 05:26:37;;;;;;;8.00;6.07;;;;;;;-145.00;65.11;73051.28;5066715;28;20129;-73
2023/08/19 05:29:04;;;;;;;6.55;5.30;;;;;;;-145.00;64.68;73045.03;5068675;28;20169;-73
2023/08/19 05:31:30;;;;;;;6.75;5.35;;;;;;;-145.00;64.51;73038.78;5070076;28;20048;-73
2023/08/19 05:34:00;;;;;;;7.78;5.28;;;;;;;-145.00;64.45;73036.72;5070684;28;20235;-73
2023/08/19 05:36:27;;;;;;;6.47;5.25;;;;;;;-145.00;64.22;73034.63;5069947;28;20059;-73
2023/08/19 05:38:54;;;;;;;7.05;5.10;;;;;;;-145.00;64.22;73026.31;5070498;28;20045;-73
2023/08/19 05:41:22;;;;;;;7.43;5.10;;;;;;;-145.00;64.58;73022.13;5068282;28;20041;-73
2023/08/19 05:43:49;;;;;;;6.43;5.07;;;;;;;-145.00;64.45;73013.81;5070722;28;20385;-73
2023/08/19 05:46:15;;;;;;;7.45;5.05;;;;;;;-145.00;64.54;73030.47;5070018;28;20049;-74
2023/08/19 05:48:42;;;;;;;7.60;5.15;;;;;;;-145.00;63.46;73017.97;5070491;28;20068;-73
2023/08/19 05:51:10;;;;;;;7.00;4.90;;;;;;;-145.00;63.29;73009.66;5068633;28;20518;-73
2023/08/19 05:53:36;;;;;;;7.47;4.93;;;;;;;-145.00;62.98;72997.16;5070069;28;20064;-73
2023/08/19 05:56:03;;;;;;;7.40;5.22;;;;;;;-145.00;62.32;72984.66;5069356;28;20056;-73
2023/08/19 05:58:33;;;;;;;6.30;4.90;;;;;;;-145.00;62.26;72980.50;5070450;28;20072;-72
2023/08/19 06:01:03;;;;;;;8.23;5.10;;;;;;;-145.00;62.60;72984.66;5070310;28;20055;-72
2023/08/19 06:03:29;;;;;;;7.35;5.07;;;;;;;-145.00;62.35;72978.41;5070319;28;20094;-73
2023/08/19 06:05:56;;;;;;;7.03;4.90;;;;;;;-145.00;61.62;72970.09;5071474;28;20053;-73
2023/08/19 06:08:22;;;;;;;6.10;3.97;;;;;;;-145.00;61.48;72963.84;5070552;28;20052;-73
2023/08/19 06:11:04;;;;;;;6.38;4.20;;;;;;;-145.00;60.78;72968.00;5071215;28;20105;-74
2023/08/19 06:13:33;;;;;;;7.80;4.57;;;;;;;-145.00;61.02;72993.00;5070102;28;20044;-73
2023/08/19 06:15:59;;;;;;;6.25;4.20;;;;;;;-145.00;60.41;72955.50;5070085;28;20045;-73
2023/08/19 06:18:26;;;;;;;6.40;4.38;;;;;;;-145.00;60.09;72943.03;5068638;28;20055;-73
2023/08/19 06:20:53;;;;;;;6.05;4.18;;;;;;;-145.00;60.10;72922.22;5068803;28;20679;-74
2023/08/19 06:23:21;;;;;;;5.85;4.38;;;;;;;-145.00;59.80;72918.03;5071239;28;20049;-74
2023/08/19 06:25:49;;;;;;;7.95;4.20;;;;;;;-145.00;59.78;72905.56;5069379;28;20071;-74
2023/08/19 06:28:16;;;;;;;8.00;4.25;;;;;;;-145.00;59.10;72905.56;5068919;28;20516;-73
2023/08/19 06:30:45;;;;;;;6.82;4.32;;;;;;;-145.00;58.85;72895.16;5069820;28;20051;-72
2023/08/19 06:33:13;;;;;;;5.68;4.25;;;;;;;-145.00;58.50;72872.25;5069118;28;20678;-73
2023/08/19 06:35:47;;;;;;;6.78;4.32;;;;;;;-145.00;59.30;72859.75;5069864;28;20491;-74
2023/08/19 06:38:16;;;;;;;6.15;4.60;;;;;;;-145.00;58.96;72855.59;5068742;28;20052;-73
2023/08/19 06:40:55;;;;;;;4.80;4.13;;;;;;;-145.00;58.91;72843.09;5063630;28;20059;-73
2023/08/19 06:43:25;;;;;;;9.27;4.80;;;;;;;-145.00;57.96;72834.78;5065975;28;20064;-73
2023/08/19 06:45:54;;;;;;;9.05;4.50;;;;;;;-145.00;57.46;72826.44;5068756;28;20627;-73
2023/08/19 06:48:22;;;;;;;6.88;4.07;;;;;;;-145.00;56.85;72809.78;5068244;28;20044;-74
2023/08/19 06:50:49;;;;;;;8.80;4.55;;;;;;;-145.00;57.59;72822.28;5069149;28;20498;-74
2023/08/19 06:53:17;;;;;;;7.95;4.80;;;;;;;-145.00;58.23;72859.75;5069124;28;20051;-74
2023/08/19 06:56:15;;;;;;;6.55;4.10;;;;;;;-145.00;58.65;72843.09;5070327;28;20121;-74
2023/08/19 06:58:44;;;;;;;7.55;4.40;;;;;;;-145.00;58.61;72843.09;5068065;28;20127;-73
2023/08/19 07:01:17;;;;;;;7.32;4.40;;;;;;;-145.00;58.28;72797.31;5067887;28;20053;-73
2023/08/19 07:03:45;;;;;;;6.82;5.00;;;;;;;-145.00;57.92;72759.81;5068140;28;20071;-73
2023/08/19 07:06:16;;;;;;;6.28;4.55;;;;;;;-145.00;57.14;72745.25;5068144;28;20051;-73
2023/08/19 07:08:45;;;;;;;7.00;4.75;;;;;;;-145.00;56.93;72755.66;5068137;28;20049;-73
2023/08/19 07:11:12;;;;;;;6.90;4.68;;;;;;;-145.00;55.79;72734.84;5067546;28;20420;-73
2023/08/19 07:13:39;;;;;;;7.80;4.88;;;;;;;-145.00;56.96;72768.16;5068162;28;20044;-73
2023/08/19 07:16:07;;;;;;;7.40;4.03;;;;;;;-145.00;57.34;72755.66;5067548;28;20511;-73
2023/08/19 07:18:39;;;;;;;6.90;4.25;;;;;;;-145.00;56.29;72707.78;5068094;28;20594;-73
2023/08/19 07:21:09;;;;;;;5.25;4.20;;;;;;;-145.00;56.44;72697.38;5067527;28;20048;-73
2023/08/19 07:23:38;;;;;;;7.13;4.18;;;;;;;-145.00;55.88;72668.22;5068097;28;20113;-73
2023/08/19 07:26:04;;;;;;;7.65;4.70;;;;;;;-145.00;56.19;72755.66;5069211;28;20055;-74
2023/08/19 07:28:33;;;;;;;6.97;4.20;;;;;;;-145.00;55.32;72701.53;5071068;28;20135;-73
2023/08/19 07:34:03;;;;;;;6.43;4.22;;;;;;;-145.00;54.29;72597.47;5008291;28;20081;-74
2023/08/19 07:36:29;;;;;;;7.75;4.55;;;;;;;-145.00;51.23;72485.06;5055971;28;20047;-74
2023/08/19 07:38:56;;;;;;;7.05;4.00;;;;;;;-145.00;48.67;72403.88;5071437;28;20051;-76
2023/08/19 07:41:22;;;;;;;5.70;3.65;;;;;;;-145.00;47.33;72339.34;5071530;28;20055;-74
2023/08/19 07:43:49;;;;;;;6.55;4.40;;;;;;;-145.00;46.32;72262.31;5074144;28;20047;-74
2023/08/19 07:46:17;;;;;;;5.88;3.97;;;;;;;-145.00;46.21;72281.06;5071360;28;20072;-74
2023/08/19 07:48:44;;;;;;;6.28;3.90;;;;;;;-145.00;46.39;72239.44;5071277;28;20094;-75
2023/08/19 07:51:12;;;;;;;6.55;3.90;;;;;;;-145.00;44.82;72181.16;5068491;28;20048;-74
2023/08/19 07:53:38;;;;;;;8.45;3.85;;;;;;;-145.00;43.58;72122.88;5067807;28;20603;-74
2023/08/19 07:56:06;;;;;;;7.18;3.95;;;;;;;-145.00;42.71;72087.47;5067293;28;20563;-74
2023/08/19 07:58:33;;;;;;;7.25;3.20;;;;;;;-145.00;45.21;72097.91;5067695;28;20052;-74
2023/08/19 08:00:59;;;;;;;8.07;5.38;;;;;;;-145.00;42.28;72070.84;5066789;28;20057;-74
2023/08/19 08:03:26;;;;;;;7.32;4.00;;;;;;;-145.00;43.88;72085.41;5066608;28;20398;-74
2023/08/19 08:05:52;;;;;;;5.78;3.78;;;;;;;-145.00;42.69;72050.03;5067080;28;20048;-75
2023/08/19 08:08:20;;;;;;;4.82;3.45;;;;;;;-145.00;43.50;72043.78;5066693;28;20385;-74
2023/08/19 08:10:47;;;;;;;7.13;3.28;;;;;;;-145.00;44.90;72014.63;5067174;28;20150;-74
2023/08/19 08:13:13;;;;;;;7.32;3.65;;;;;;;-145.00;42.18;71964.69;5067569;28;20041;-74
2023/08/19 08:15:40;;;;;;;6.25;3.70;;;;;;;-145.00;41.05;71931.38;5068369;28;20056;-74
2023/08/19 08:18:06;;;;;;;5.63;4.13;;;;;;;-145.00;42.56;71977.19;5067748;28;20117;-74
2023/08/19 08:20:33;;;;;;;7.30;3.90;;;;;;;-145.00;40.91;71920.97;5068148;28;20060;-74
2023/08/19 08:22:59;;;;;;;5.65;3.75;;;;;;;-145.00;40.77;71877.28;5067797;28;20058;-74
2023/08/19 08:25:27;;;;;;;8.55;3.97;;;;;;;-145.00;41.23;71829.41;5066573;28;20044;-74
2023/08/19 08:27:54;;;;;;;5.43;3.58;;;;;;;-145.00;39.54;71789.88;5066862;28;20138;-75
2023/08/19 08:30:20;;;;;;;6.50;3.88;;;;;;;-145.00;40.09;71781.53;5066018;28;20500;-74
2023/08/19 08:32:47;;;;;;;9.20;4.10;;;;;;;-145.00;38.67;71794.03;5066406;28;20056;-73
2023/08/19 08:35:14;;;;;;;5.05;3.75;;;;;;;-145.00;40.22;71783.63;5066001;28;20049;-74
2023/08/19 08:37:40;;;;;;;8.48;3.80;;;;;;;-145.00;40.52;71777.38;5066676;28;20051;-75
2023/08/19 08:40:08;;;;;;;4.55;3.10;;;;;;;-145.00;39.78;71769.03;5066211;28;20052;-75
2023/08/19 08:42:36;;;;;;;4.65;3.50;;;;;;;-145.00;40.19;71748.22;5066817;28;20048;-75
2023/08/19 08:45:04;;;;;;;4.97;3.40;;;;;;;-145.00;38.53;71744.06;5066102;28;20507;-75
2023/08/19 08:47:31;;;;;;;4.95;3.45;;;;;;;-145.00;39.95;71727.41;5066293;28;20055;-75
2023/08/19 08:49:58;;;;;;;5.43;3.55;;;;;;;-145.00;39.38;71700.38;5066529;28;20140;-76
2023/08/19 08:52:25;;;;;;;7.05;3.40;;;;;;;-145.00;38.45;71677.47;5066163;28;20047;-76
2023/08/19 08:54:53;;;;;;;7.75;3.90;;;;;;;-145.00;37.94;71694.13;5066262;28;20142;-76
2023/08/19 08:57:20;;;;;;;3.75;3.10;;;;;;;-145.00;38.16;71694.13;5066208;28;20530;-76
2023/08/19 08:59:48;;;;;;;6.30;3.22;;;;;;;-145.00;37.91;71689.97;5066238;28;20059;-75
2023/08/19 09:02:16;;;;;;;5.53;3.78;;;;;;;-145.00;39.93;71781.53;5065687;28;20143;-76
2023/08/19 09:04:44;;;;;;;6.50;3.25;;;;;;;-145.00;39.33;71735.75;5070264;28;20041;-76
2023/08/19 09:07:16;;;;;;;5.03;3.53;;;;;;;-145.00;39.06;71694.13;5070133;28;20055;-75
2023/08/19 09:09:47;;;;;;;5.68;3.88;;;;;;;-145.00;39.01;71752.41;5070496;28;20094;-76
2023/08/19 09:12:14;;;;;;;6.70;4.15;;;;;;;-145.00;39.33;71794.03;5070038;28;20051;-76
2023/08/19 09:14:43;;;;;;;4.95;3.60;;;;;;;-145.00;38.70;71739.91;5070128;28;20079;-75
2023/08/19 09:17:12;;;;;;;4.38;3.25;;;;;;;-145.00;39.46;71723.25;5069682;28;20144;-75
2023/08/19 09:19:38;;;;;;;5.70;3.40;;;;;;;-145.00;38.42;71667.06;5070245;28;20043;-75
2023/08/19 09:22:19;;;;;;;4.97;3.30;;;;;;;-145.00;38.73;71610.88;5069703;28;20052;-75
2023/08/19 09:24:45;;;;;;;6.10;3.45;;;;;;;-145.00;37.85;71590.06;5070116;28;20052;-75
2023/08/19 09:27:14;;;;;;;5.88;3.20;;;;;;;-145.00;36.72;71502.66;5069749;28;20049;-75
2023/08/19 09:29:49;;;;;;;9.50;4.60;;;;;;;-145.00;35.63;71494.34;5069742;28;20055;-75
2023/08/19 09:32:26;;;;;;;6.28;4.00;;;;;;;-145.00;35.80;71498.50;5069361;28;20048;-75
2023/08/19 09:35:02;;;;;;;5.80;3.70;;;;;;;-145.00;36.23;71515.16;5069812;28;20044;-76
2023/08/19 09:37:29;;;;;;;7.55;3.78;;;;;;;-145.00;36.37;71533.88;5069359;28;20052;-75
2023/08/19 09:39:55;;;;;;;6.82;4.20;;;;;;;-145.00;37.82;71581.75;5069959;28;20049;-75
2023/08/19 09:42:22;;;;;;;5.88;3.33;;;;;;;-145.00;37.05;71575.50;5069141;28;20056;-76
2023/08/19 09:44:48;;;;;;;6.22;3.63;;;;;;;-145.00;38.21;71554.69;5069599;28;20049;-75
2023/08/19 09:47:16;;;;;;;7.78;4.30;;;;;;;-145.00;36.83;71556.78;5069240;28;20094;-75
2023/08/19 09:49:43;;;;;;;6.80;3.88;;;;;;;-145.00;38.30;71569.25;5069120;28;20045;-75
2023/08/19 09:52:16;;;;;;;4.72;3.50;;;;;;;-145.00;38.03;71563.00;5069217;28;20048;-75
2023/08/19 09:54:43;;;;;;;7.07;4.25;;;;;;;-145.00;38.83;71575.50;5069435;28;20114;-75
2023/08/19 09:57:09;;;;;;;5.78;3.47;;;;;;;-145.00;37.02;71585.91;5068921;28;20059;-75
2023/08/19 09:59:38;;;;;;;8.25;3.80;;;;;;;-145.00;37.61;71652.50;5069237;28;20123;-75
2023/08/19 10:02:05;;;;;;;9.02;4.25;;;;;;;-145.00;37.46;71604.63;5068612;28;20051;-75
2023/08/19 10:04:33;;;;;;;7.28;3.67;;;;;;;-145.00;37.53;71581.75;5069077;28;20052;-75
2023/08/19 10:07:04;;;;;;;4.95;3.88;;;;;;;-145.00;38.29;71560.94;5069357;28;20055;-75
2023/08/19 10:09:31;;;;;;;6.60;3.55;;;;;;;-145.00;37.02;71533.88;5068909;28;20045;-75
2023/08/19 10:12:00;;;;;;;6.03;3.65;;;;;;;-145.00;36.87;71619.19;5069310;28;20052;-75
2023/08/19 10:14:30;;;;;;;7.00;3.80;;;;;;;-145.00;38.83;71685.81;5067484;28;20040;-75
2023/08/19 10:17:00;;;;;;;6.25;4.07;;;;;;;-145.00;38.62;71598.38;5069019;28;20077;-75
2023/08/19 10:19:32;;;;;;;5.80;3.40;;;;;;;-145.00;38.98;71569.25;5068733;28;20495;-75
2023/08/19 10:22:01;;;;;;;6.00;3.80;;;;;;;-145.00;37.69;71527.63;5069085;28;20052;-75
2023/08/19 10:24:28;;;;;;;6.50;3.67;;;;;;;-145.00;37.28;71529.72;5068708;28;20040;-75
2023/08/19 10:26:55;;;;;;;5.32;3.58;;;;;;;-145.00;37.10;71498.50;5068779;28;20053;-75
2023/08/19 10:29:22;;;;;;;6.68;3.13;;;;;;;-145.00;37.04;71477.69;5068253;28;20094;-75
2023/08/19 10:31:49;;;;;;;6.38;3.88;;;;;;;-145.00;35.41;71506.81;5068693;28;20047;-75
2023/08/19 10:34:25;;;;;;;5.93;3.40;;;;;;;-145.00;35.65;71519.31;5068196;28;20048;-75
2023/08/19 10:37:07;;;;;;;6.30;3.45;;;;;;;-145.00;36.35;71558.84;5068544;28;20110;-75
2023/08/19 10:39:35;;;;;;;5.93;3.03;;;;;;;-145.00;36.16;71535.97;5068444;28;20044;-75
2023/08/19 10:42:02;;;;;;;4.40;3.28;;;;;;;-145.00;35.19;71538.03;5068513;28;20053;-75
2023/08/19 10:44:33;;;;;;;4.28;3.10;;;;;;;-145.00;35.12;71548.44;5068133;28;20090;-75
2023/08/19 10:47:08;;;;;;;4.88;3.38;;;;;;;-145.00;35.80;71523.47;5068587;28;20055;-75
2023/08/19 10:49:35;;;;;;;6.78;3.67;;;;;;;-145.00;35.12;71496.41;5068148;28;20055;-75
2023/08/19 10:52:03;;;;;;;6.05;3.45;;;;;;;-145.00;34.74;71461.03;5068016;28;20049;-75
2023/08/19 10:54:35;;;;;;;4.70;3.53;;;;;;;-145.00;34.20;71467.28;5068326;28;20052;-75
2023/08/19 10:57:11;;;;;;;6.35;3.50;;;;;;;-145.00;33.86;71502.66;5068188;28;20470;-75
2023/08/19 10:59:39;;;;;;;4.55;2.80;;;;;;;-145.00;35.21;71492.25;5068015;28;20140;-75
2023/08/19 11:02:06;;;;;;;5.20;3.58;;;;;;;-145.00;35.09;71486.00;5067464;28;20060;-74
2023/08/19 11:04:33;;;;;;;5.30;3.60;;;;;;;-145.00;35.23;71492.25;5068084;28;20507;-75
2023/08/19 11:06:59;;;;;;;5.18;4.15;;;;;;;-145.00;35.85;71494.34;5068100;28;20056;-75
2023/08/19 11:09:28;;;;;;;5.72;3.83;;;;;;;-145.00;35.24;71500.59;5067591;28;20132;-75
2023/08/19 11:11:58;;;;;;;5.15;3.75;;;;;;;-145.00;35.61;71519.31;5067884;28;20503;-75
2023/08/19 11:14:25;;;;;;;4.45;3.17;;;;;;;-145.00;35.92;71538.03;5067306;28;20048;-74
2023/08/19 11:16:53;;;;;;;5.60;3.30;;;;;;;-145.00;36.07;71548.44;5067847;28;20052;-75
2023/08/19 11:19:20;;;;;;;10.82;5.05;;;;;;;-145.00;36.04;71548.44;5067497;28;20045;-75
2023/08/19 11:21:47;;;;;;;4.80;3.30;;;;;;;-145.00;37.14;71546.38;5067818;28;20052;-75
2023/08/19 11:24:15;;;;;;;5.60;3.20;;;;;;;-145.00;35.32;71540.13;5067253;28;20680;-75